Historyczne dane pomiarowe

Dodano dane terminowe – wersja testowa.

Dane z okresu 1951-2019

Wersja bazy: 1.34 [2019-03-16, lista zmian], aktualizacja planowana na 2019-04-15

Dane meteo z obszaru Polski uzyskane na podstawie danych udostępnionych przez Instytut Meteorologii i Gospodarki Wodnej – Państwowy Instytut Badawczy.

 

Wybierz Datę:    

       

TemperaturaWilgotnośćZachmurzenieWiatrCiśnienieWidzialnośćZjawiska
 Data    tng td wb rh cc ccl cl cm ch dir g1 g2 mslp ppp      
1994-07-17 00:00:00 15.8--- 14.8 15.294wxwx0wx--1020.6 980.0 0.0---wx
1994-07-17 01:00:00 15.2--- 14.2 14.694wxwxwx0wx--1020.9 980.2----wx
1994-07-17 02:00:00 15.2--- 13.9 14.492wxwxwx0wx--1020.9 980.2----wx
1994-07-17 03:00:00 15.2--- 14.2 14.694wxwxwxwx0wx--1020.8 980.1----wx
1994-07-17 04:00:00 15.0--- 14.0 14.494wxwxwx0wx--1020.9 980.2----wx
1994-07-17 05:00:00 15.8--- 14.8 15.294wxwxwxwx0wx--1020.7 980.1----wx
1994-07-17 06:00:00 18.4--- 16.2 17.087wxwxwxwx0wx--1020.1 979.9 0.0---wx
1994-07-17 07:00:00 21.5--- 17.2 18.777wxwxwx0wx--1019.4 979.6----wx
1994-07-17 08:00:00 24.5--- 16.9 19.562wxwxwx0wx--1018.8 979.5----wx
1994-07-17 09:00:00 25.7--- 15.8 19.354wxwxwx2wx--1018.4 979.2----wx
1994-07-17 10:00:00 25.5--- 17.0 19.959wxwxwx1wx--1018.5 979.3----wx
1994-07-17 11:00:00 22.5--- 16.8 18.870wxwxwx2wx--1019.0 979.4----wxw1
1994-07-17 12:00:00 24.2--- 17.4 19.766wxwxwx2wx--1018.3 978.9 0.0---wx
1994-07-17 13:00:00 22.5--- 16.8 18.870wxwxwx4wx--1018.6 979.0----wxw1
1994-07-17 14:00:00 19.3--- 16.8 17.786wxwxwx1wx--1018.4 978.4----wxw1
1994-07-17 15:00:00 18.5--- 16.6 17.389wxwxwx0wx--1019.8 979.6----wxw1
1994-07-17 16:00:00 18.2--- 16.6 17.291wxwxwx3wx--1019.5 979.3----wxw1
1994-07-17 17:00:00 18.1--- 16.5 17.191wxwxwx2wx--1018.8 978.6----wx
1994-07-17 18:00:00 18.3--- 16.7 17.391wxwxwx1wx--1018.7 978.5 3.2---wxw1
1994-07-17 19:00:00 17.0--- 16.2 16.595wxwxwxwx0wx--1018.5 978.2----wx
1994-07-17 20:00:00 16.1--- 15.1 15.594wxwxwx0wx--1018.5 978.1----wx
1994-07-17 21:00:00 14.9--- 13.7 14.293wxwx0wx--1018.7 978.1----wx
1994-07-17 22:00:00 14.5--- 14.5 14.5100wxwx0wx--1018.8 978.1----wx
1994-07-17 23:00:00 15.6--- 15.4 15.599wxwx0wx--1018.7 978.2----wxw1

 

Źródłem pochodzenia danych jest Instytut Meteorologii i Gospodarki Wodnej – Państwowy Instytut Badawczy. Dane Instytutu Meteorologii i Gospodarki Wodnej – Państwowego Instytutu Badawczego zostały przetworzone.

Dane źródłowe można odnaleźć na stronie https://dane.imgw.pl